createdAt,value
2019-02-12T00:00:26.907Z,4.20
2019-02-12T00:06:31.443Z,6.40
2019-02-12T00:12:36.017Z,9.67
2019-02-12T00:18:40.563Z,7.93
2019-02-12T00:24:45.118Z,12.97
2019-02-12T00:30:49.672Z,3.20
2019-02-12T00:36:54.223Z,4.13
2019-02-12T00:42:58.754Z,5.20
2019-02-12T00:49:03.364Z,5.23
2019-02-12T00:55:12.153Z,7.37
2019-02-12T01:01:17.062Z,7.20
2019-02-12T01:07:21.735Z,4.37
2019-02-12T01:13:26.284Z,5.13
2019-02-12T01:19:30.902Z,4.97
2019-02-12T01:25:36.562Z,4.73
2019-02-12T01:31:41.125Z,4.70
2019-02-12T01:37:49.728Z,11.80
2019-02-12T01:43:54.268Z,4.43
2019-02-12T01:49:58.810Z,3.33
2019-02-12T01:56:03.367Z,6.00
2019-02-12T02:02:07.907Z,7.10
2019-02-12T02:08:12.526Z,6.73
2019-02-12T02:14:17.073Z,13.20
2019-02-12T02:20:21.608Z,2.43
2019-02-12T02:26:26.189Z,8.53
2019-02-12T02:32:30.785Z,3.67
2019-02-12T02:38:35.337Z,7.07
2019-02-12T02:44:39.899Z,4.10
2019-02-12T02:50:44.451Z,5.00
2019-02-12T02:56:49.740Z,3.37
2019-02-12T03:02:54.391Z,5.43
2019-02-12T03:08:58.972Z,8.90
2019-02-12T03:15:03.595Z,3.63
2019-02-12T03:21:08.130Z,3.10
2019-02-12T03:27:12.720Z,4.17
2019-02-12T03:33:17.257Z,18.63
2019-02-12T03:39:21.799Z,11.87
2019-02-12T03:45:26.347Z,3.27
2019-02-12T03:51:30.882Z,5.33
2019-02-12T03:57:35.567Z,2.10
2019-02-12T04:03:40.183Z,6.90
2019-02-12T04:09:44.837Z,5.17
2019-02-12T04:15:49.727Z,16.30
2019-02-12T04:21:54.272Z,10.77
2019-02-12T04:27:58.821Z,12.00
2019-02-12T04:34:03.367Z,10.03
2019-02-12T04:40:11.426Z,8.90
2019-02-12T04:46:15.954Z,5.10
2019-02-12T04:52:20.502Z,6.10
2019-02-12T04:58:25.045Z,8.77
2019-02-12T05:04:29.593Z,6.47
2019-02-12T05:10:41.510Z,9.57
2019-02-12T05:16:46.049Z,2.83
2019-02-12T05:22:50.591Z,8.07
2019-02-12T05:28:55.172Z,9.00
2019-02-12T05:34:59.723Z,5.40
2019-02-12T05:41:04.295Z,6.53
2019-02-12T05:47:08.872Z,9.67
2019-02-12T05:53:13.401Z,8.83
2019-02-12T05:59:17.949Z,11.57
2019-02-12T06:05:31.114Z,7.00
2019-02-12T06:11:35.773Z,10.60
2019-02-12T06:17:40.303Z,3.97
2019-02-12T06:23:44.851Z,6.73
2019-02-12T06:29:50.635Z,5.00
2019-02-12T06:35:55.255Z,11.87
2019-02-12T06:41:59.822Z,6.30
2019-02-12T06:48:04.446Z,6.00
2019-02-12T06:54:09.006Z,16.00
2019-02-12T07:00:15.265Z,10.93
2019-02-12T07:06:48.092Z,5.90
2019-02-12T07:13:15.926Z,13.60
2019-02-12T07:19:25.192Z,6.13
2019-02-12T07:25:55.337Z,7.73
2019-02-12T07:32:37.728Z,6.87
2019-02-12T07:39:02.487Z,5.73
2019-02-12T07:45:38.524Z,9.00
2019-02-12T07:51:56.538Z,11.73
2019-02-12T07:58:24.665Z,8.90
2019-02-12T08:04:48.885Z,4.10
2019-02-12T08:11:10.186Z,9.13
2019-02-12T08:17:27.971Z,13.83
2019-02-12T08:23:42.684Z,5.83
2019-02-12T08:30:17.228Z,10.37
2019-02-12T08:36:32.137Z,7.90
2019-02-12T08:42:55.964Z,8.47
2019-02-12T08:49:10.764Z,11.93
2019-02-12T08:55:49.652Z,10.10
2019-02-12T09:02:33.477Z,38.53
2019-02-12T09:09:00.309Z,15.10
2019-02-12T09:15:43.642Z,8.80
2019-02-12T09:22:01.297Z,13.20
2019-02-12T09:28:25.071Z,7.70
2019-02-12T09:34:34.402Z,10.00
2019-02-12T09:41:10.653Z,14.03
2019-02-12T09:47:44.976Z,13.67
2019-02-12T09:53:57.035Z,13.03
2019-02-12T10:00:28.261Z,11.63
2019-02-12T10:06:46.425Z,10.53
2019-02-12T10:13:25.221Z,13.87
2019-02-12T10:19:37.380Z,41.13
2019-02-12T10:25:42.418Z,29.60
2019-02-12T10:31:45.365Z,9.00
2019-02-12T10:37:49.909Z,15.80
2019-02-12T10:43:54.456Z,10.73
2019-02-12T10:49:59.659Z,21.23
2019-02-12T10:56:04.681Z,17.60
2019-02-12T11:02:09.319Z,7.50
2019-02-12T11:08:13.949Z,6.90
2019-02-12T11:14:18.490Z,7.67
2019-02-12T11:20:23.041Z,6.80
2019-02-12T11:26:27.592Z,6.80
2019-02-12T11:32:32.152Z,9.97
2019-02-12T11:38:37.089Z,8.87
2019-02-12T11:44:41.736Z,8.27
2019-02-12T11:50:47.297Z,15.70
2019-02-12T11:56:52.166Z,8.53
2019-02-12T12:02:56.737Z,6.77
2019-02-12T12:09:01.922Z,4.83
2019-02-12T12:15:13.472Z,5.27
2019-02-12T12:21:18.086Z,4.83
2019-02-12T12:27:22.633Z,6.67
2019-02-12T12:33:28.238Z,7.10
2019-02-12T12:39:32.786Z,7.27
2019-02-12T12:45:37.341Z,9.13
2019-02-12T12:51:41.915Z,8.63
2019-02-12T12:57:46.453Z,4.20
2019-02-12T13:03:52.606Z,3.33
2019-02-12T13:09:57.143Z,4.90
2019-02-12T13:16:03.018Z,4.03
2019-02-12T13:22:07.576Z,3.97
2019-02-12T13:28:12.125Z,6.30
2019-02-12T13:34:16.673Z,12.13
2019-02-12T13:40:21.449Z,7.27
2019-02-12T13:46:26.008Z,4.97
2019-02-12T13:52:30.555Z,7.07
2019-02-12T13:58:35.103Z,7.03
2019-02-12T14:04:39.659Z,9.70
2019-02-12T14:10:44.201Z,4.70
2019-02-12T14:16:48.907Z,11.37
2019-02-12T14:22:53.454Z,7.23
2019-02-12T14:28:58.003Z,6.93
2019-02-12T14:35:02.546Z,17.30
2019-02-12T14:41:07.182Z,10.73
2019-02-12T14:47:11.793Z,10.80
2019-02-12T14:53:17.005Z,12.83
2019-02-12T14:59:22.525Z,10.80
2019-02-12T15:05:27.180Z,6.63
2019-02-12T15:11:35.026Z,6.80
2019-02-12T15:17:42.867Z,6.90
2019-02-12T15:23:47.409Z,5.97
2019-02-12T15:29:51.967Z,6.60
2019-02-12T15:35:56.518Z,5.63
2019-02-12T15:42:01.069Z,9.63
2019-02-12T15:48:05.706Z,13.13
2019-02-12T15:54:10.342Z,22.40
2019-02-12T16:00:20.950Z,7.40
2019-02-12T16:06:25.506Z,11.07
2019-02-12T16:12:30.628Z,14.27
2019-02-12T16:18:35.324Z,28.43
2019-02-12T16:24:39.881Z,24.10
2019-02-12T16:30:44.419Z,17.37
2019-02-12T16:36:48.955Z,14.33
2019-02-12T16:42:53.531Z,16.03
2019-02-12T16:48:58.072Z,10.87
2019-02-12T16:55:02.689Z,16.07
2019-02-12T17:01:07.366Z,9.67
2019-02-12T17:07:11.988Z,13.57
2019-02-12T17:13:16.546Z,9.30
2019-02-12T17:19:24.278Z,12.10
2019-02-12T17:25:28.817Z,12.07
2019-02-12T17:31:33.374Z,18.53
2019-02-12T17:37:37.996Z,12.40
2019-02-12T17:43:42.541Z,9.57
2019-02-12T17:49:47.105Z,12.30
2019-02-12T17:55:51.653Z,15.50
2019-02-12T18:01:56.191Z,11.03
2019-02-12T18:08:00.732Z,13.53
2019-02-12T18:14:11.566Z,12.97
2019-02-12T18:20:26.372Z,20.30
2019-02-12T18:26:32.875Z,21.77
2019-02-12T18:32:31.238Z,17.80
2019-02-12T18:38:35.777Z,16.63
2019-02-12T18:44:40.334Z,21.97
2019-02-12T18:50:44.895Z,19.10
2019-02-12T18:56:49.434Z,22.63
2019-02-12T19:02:54.074Z,25.07
2019-02-12T19:08:58.636Z,36.27
2019-02-12T19:15:03.631Z,21.17
2019-02-12T19:21:08.317Z,39.63
2019-02-12T19:27:12.964Z,31.23
2019-02-12T19:33:18.406Z,28.90
2019-02-12T19:39:23.269Z,25.43
2019-02-12T19:45:27.837Z,24.53
2019-02-12T19:51:32.382Z,22.53
2019-02-12T19:57:37.015Z,25.67
2019-02-12T20:03:41.756Z,31.33
2019-02-12T20:09:47.692Z,28.23
2019-02-12T20:15:52.248Z,37.13
2019-02-12T20:21:56.814Z,32.33
2019-02-12T20:28:01.372Z,24.43
2019-02-12T20:34:07.742Z,23.27
2019-02-12T20:40:14.574Z,22.40
2019-02-12T20:46:19.196Z,32.17
2019-02-12T20:52:23.741Z,22.10
2019-02-12T20:58:28.301Z,20.90
2019-02-12T21:04:32.842Z,29.07
2019-02-12T21:10:39.807Z,21.07
2019-02-12T21:16:44.430Z,27.57
2019-02-12T21:22:48.990Z,30.70
2019-02-12T21:28:53.547Z,22.70
2019-02-12T21:34:58.164Z,23.50
2019-02-12T21:41:02.799Z,21.43
2019-02-12T21:47:07.351Z,15.93
2019-02-12T21:53:11.892Z,22.47
2019-02-12T21:59:16.449Z,18.43
2019-02-12T22:05:21.076Z,16.40
2019-02-12T22:11:25.623Z,18.83
2019-02-12T22:17:30.166Z,17.60
2019-02-12T22:23:37.140Z,13.37
2019-02-12T22:29:41.700Z,19.57
2019-02-12T22:35:46.263Z,16.00
2019-02-12T22:41:50.812Z,17.80
2019-02-12T22:47:55.353Z,16.03
2019-02-12T22:53:59.901Z,15.53
2019-02-12T23:00:08.140Z,19.47
2019-02-12T23:06:12.761Z,12.03
2019-02-12T23:12:17.310Z,25.57
2019-02-12T23:18:21.862Z,19.67
2019-02-12T23:24:27.121Z,19.43
2019-02-12T23:30:32.007Z,21.00
2019-02-12T23:36:36.550Z,17.37
2019-02-12T23:42:41.763Z,17.93
2019-02-12T23:48:46.309Z,21.73
2019-02-12T23:54:50.966Z,16.13
